Time;durP1;ratioP1;P1;durP2;ratioP2;P2;SDS_P1;SDS_P2;PMS_P1;PMS_P2;Temp;Humidity;BMP_temperature;BMP_pressure;BME280_temperature;BME280_humidity;BME280_pressure;Samples;Min_cycle;Max_cycle;Signal;HPM_P1;HPM_P2
2024/02/19 00:02:07;;;;;;;50.40;34.00;;;;;;;-0.31;100.00;99794.23;109276;1254;60084;-75
2024/02/19 00:04:33;;;;;;;51.90;35.40;;;;;;;-0.32;100.00;99795.45;109271;1254;65184;-75
2024/02/19 00:07:00;;;;;;;51.30;35.80;;;;;;;-0.32;100.00;99794.41;108944;1254;59086;-74
2024/02/19 00:09:27;;;;;;;51.80;35.10;;;;;;;-0.32;100.00;99795.27;109295;1254;59122;-74
2024/02/19 00:11:54;;;;;;;54.80;36.60;;;;;;;-0.33;100.00;99788.48;109286;1254;67064;-75
2024/02/19 00:14:20;;;;;;;47.80;33.50;;;;;;;-0.32;100.00;99783.59;109299;1254;60099;-75
2024/02/19 00:16:47;;;;;;;49.80;35.80;;;;;;;-0.33;100.00;99776.45;109292;1254;64992;-76
2024/02/19 00:19:13;;;;;;;48.70;35.40;;;;;;;-0.34;100.00;99774.53;109279;1254;59094;-74
2024/02/19 00:21:40;;;;;;;54.40;36.10;;;;;;;-0.35;100.00;99773.84;109277;1254;58926;-74
2024/02/19 00:24:07;;;;;;;56.80;38.60;;;;;;;-0.36;100.00;99768.10;109264;1254;65780;-75
2024/02/19 00:26:34;;;;;;;50.60;35.80;;;;;;;-0.37;100.00;99769.15;109281;1254;60046;-74
2024/02/19 00:29:01;;;;;;;53.20;37.60;;;;;;;-0.39;100.00;99765.15;109312;1254;62829;-75
2024/02/19 00:31:28;;;;;;;51.20;37.00;;;;;;;-0.41;100.00;99761.51;108993;1254;59116;-74
2024/02/19 00:33:54;;;;;;;55.60;36.00;;;;;;;-0.44;100.00;99756.83;109234;1255;59040;-75
2024/02/19 00:36:21;;;;;;;53.60;36.80;;;;;;;-0.48;100.00;99755.30;108445;1255;1002305;-74
2024/02/19 00:38:48;;;;;;;56.30;37.90;;;;;;;-0.51;100.00;99751.84;108950;1255;60666;-75
2024/02/19 00:41:14;;;;;;;55.10;39.20;;;;;;;-0.53;100.00;99748.88;109204;1255;64951;-74
2024/02/19 00:43:41;;;;;;;57.30;39.50;;;;;;;-0.55;100.00;99742.63;109168;1256;58959;-73
2024/02/19 00:46:08;;;;;;;48.80;34.00;;;;;;;-0.58;100.00;99736.02;109184;1255;59039;-75
2024/02/19 00:48:34;;;;;;;52.60;35.90;;;;;;;-0.59;100.00;99732.72;109193;1255;65706;-74
2024/02/19 00:51:03;;;;;;;55.60;37.00;;;;;;;-0.60;100.00;99724.01;109228;1255;60183;-74
2024/02/19 00:53:30;;;;;;;52.80;34.90;;;;;;;-0.62;100.00;99713.73;109175;1255;65137;-75
2024/02/19 00:55:56;;;;;;;53.20;36.10;;;;;;;-0.63;100.00;99706.41;109207;1255;59060;-74
2024/02/19 00:58:23;;;;;;;55.10;35.40;;;;;;;-0.65;100.00;99709.39;109194;1255;59048;-75
2024/02/19 01:00:49;;;;;;;50.20;35.10;;;;;;;-0.66;100.00;99711.84;109197;1255;66031;-75
2024/02/19 01:03:16;;;;;;;51.60;35.50;;;;;;;-0.68;100.00;99706.27;109207;1255;59997;-75
2024/02/19 01:05:43;;;;;;;53.90;34.80;;;;;;;-0.68;100.00;99703.66;109207;1255;63787;-75
2024/02/19 01:08:10;;;;;;;48.80;34.90;;;;;;;-0.69;100.00;99700.70;109190;1255;59302;-74
2024/02/19 01:10:36;;;;;;;55.00;36.30;;;;;;;-0.69;100.00;99691.28;109189;1255;59041;-74
2024/02/19 01:13:03;;;;;;;52.40;36.80;;;;;;;-0.70;100.00;99681.52;109022;1256;64739;-75
2024/02/19 01:15:30;;;;;;;52.50;35.90;;;;;;;-0.71;100.00;99679.43;109289;1255;61071;-75
2024/02/19 01:17:56;;;;;;;53.00;36.80;;;;;;;-0.73;100.00;99679.80;108453;1255;1003093;-75
2024/02/19 01:20:23;;;;;;;51.10;35.20;;;;;;;-0.74;100.00;99679.99;109179;1255;59077;-74
2024/02/19 01:22:51;;;;;;;52.60;37.20;;;;;;;-0.75;100.00;99680.02;108992;1255;59026;-75
2024/02/19 01:25:20;;;;;;;50.70;35.80;;;;;;;-0.76;100.00;99673.91;108459;1255;1003005;-75
2024/02/19 01:27:47;;;;;;;52.60;36.40;;;;;;;-0.77;100.00;99671.83;109219;1255;61082;-76
2024/02/19 01:30:14;;;;;;;48.10;34.80;;;;;;;-0.77;100.00;99663.10;109201;1255;65057;-74
2024/02/19 01:32:40;;;;;;;53.50;37.30;;;;;;;-0.78;100.00;99659.45;109194;1255;59141;-75
2024/02/19 01:35:08;;;;;;;53.20;37.60;;;;;;;-0.77;100.00;99656.65;108950;1256;59089;-75
2024/02/19 01:37:35;;;;;;;55.90;35.50;;;;;;;-0.76;100.00;99654.55;109230;1255;67011;-76
2024/02/19 01:40:08;;;;;;;52.60;37.40;;;;;;;-0.76;100.00;99649.31;109231;1255;60203;-75
2024/02/19 01:42:35;;;;;;;54.30;37.60;;;;;;;-0.77;100.00;99646.36;109076;1256;65093;-76
2024/02/19 01:45:03;;;;;;;54.00;36.90;;;;;;;-0.77;100.00;99641.65;109173;1255;59389;-74
2024/02/19 01:47:30;;;;;;;54.60;38.70;;;;;;;-0.77;100.00;99639.20;109197;1255;59207;-75
2024/02/19 01:49:57;;;;;;;55.60;36.30;;;;;;;-0.77;100.00;99631.00;109159;1255;67013;-75
2024/02/19 01:52:24;;;;;;;56.80;37.00;;;;;;;-0.76;100.00;99625.23;109229;1255;60073;-75
2024/02/19 01:54:51;;;;;;;50.70;34.10;;;;;;;-0.75;100.00;99618.77;108984;1256;63996;-76
2024/02/19 01:57:19;;;;;;;55.60;37.00;;;;;;;-0.74;100.00;99610.39;108435;1255;1003126;-74
2024/02/19 01:59:47;;;;;;;56.40;35.90;;;;;;;-0.73;100.00;99603.23;109217;1256;59020;-75
2024/02/19 02:02:15;;;;;;;53.90;39.10;;;;;;;-0.73;100.00;99601.30;109231;1256;65946;-75
2024/02/19 02:04:41;;;;;;;55.20;36.90;;;;;;;-0.71;100.00;99596.38;109226;1255;61126;-75
2024/02/19 02:07:09;;;;;;;56.10;36.50;;;;;;;-0.69;100.00;99587.81;109209;1255;65248;-74
2024/02/19 02:09:36;;;;;;;56.50;38.60;;;;;;;-0.67;100.00;99586.73;108957;1256;59009;-74
2024/02/19 02:12:03;;;;;;;55.90;38.50;;;;;;;-0.64;100.00;99578.16;109209;1255;59396;-75
2024/02/19 02:14:30;;;;;;;56.50;37.80;;;;;;;-0.62;100.00;99572.55;108992;1256;66917;-74
2024/02/19 02:16:56;;;;;;;58.10;39.40;;;;;;;-0.60;100.00;99570.27;109237;1255;60772;-74
2024/02/19 02:19:23;;;;;;;58.30;39.70;;;;;;;-0.59;100.00;99566.57;109202;1255;65274;-74
2024/02/19 02:21:49;;;;;;;49.70;34.70;;;;;;;-0.58;100.00;99562.38;109194;1255;59471;-74
2024/02/19 02:24:16;;;;;;;53.30;37.30;;;;;;;-0.57;100.00;99559.05;109227;1255;59287;-75
2024/02/19 02:26:43;;;;;;;52.80;35.90;;;;;;;-0.55;100.00;99559.38;109231;1255;66164;-74
2024/02/19 02:29:10;;;;;;;52.40;37.00;;;;;;;-0.55;100.00;99548.55;109176;1255;61229;-74
2024/02/19 02:31:36;;;;;;;52.50;36.60;;;;;;;-0.54;100.00;99547.48;109184;1255;65003;-74
2024/02/19 02:34:04;;;;;;;56.60;39.00;;;;;;;-0.53;100.00;99546.77;109212;1255;59016;-74
2024/02/19 02:36:31;;;;;;;53.90;37.30;;;;;;;-0.52;100.00;99539.44;109231;1255;59025;-76
2024/02/19 02:38:58;;;;;;;57.30;38.70;;;;;;;-0.50;100.00;99541.84;109207;1255;66009;-75
2024/02/19 02:41:24;;;;;;;55.80;37.50;;;;;;;-0.49;100.00;99543.05;109189;1255;59872;-75
2024/02/19 02:43:51;;;;;;;52.40;35.70;;;;;;;-0.48;100.00;99534.14;109210;1255;65139;-75
2024/02/19 02:46:18;;;;;;;48.80;35.20;;;;;;;-0.48;100.00;99527.15;109175;1255;59339;-74
2024/02/19 02:48:44;;;;;;;50.50;35.20;;;;;;;-0.47;100.00;99522.45;109020;1255;59408;-75
2024/02/19 02:51:11;;;;;;;57.30;36.60;;;;;;;-0.46;100.00;99518.06;108458;1255;1002038;-74
2024/02/19 02:53:38;;;;;;;55.70;36.60;;;;;;;-0.45;100.00;99515.25;109241;1255;60334;-76
2024/02/19 02:56:05;;;;;;;51.80;35.20;;;;;;;-0.43;100.00;99511.55;108958;1255;64845;-75
2024/02/19 02:58:33;;;;;;;49.50;34.80;;;;;;;-0.41;100.00;99504.55;109103;1255;59030;-75
2024/02/19 03:01:00;;;;;;;46.80;32.20;;;;;;;-0.39;100.00;99503.14;109208;1255;58946;-76
2024/02/19 03:03:32;;;;;;;49.40;34.90;;;;;;;-0.37;100.00;99498.22;109219;1255;65968;-76
2024/02/19 03:05:59;;;;;;;56.00;36.80;;;;;;;-0.34;100.00;99499.04;109253;1255;61383;-75
2024/02/19 03:08:26;;;;;;;53.20;35.40;;;;;;;-0.33;100.00;99491.52;109229;1255;64132;-74
2024/02/19 03:10:52;;;;;;;53.40;33.60;;;;;;;-0.30;100.00;99493.91;109096;1255;58992;-75
2024/02/19 03:13:19;;;;;;;49.50;35.30;;;;;;;-0.27;100.00;99488.63;108943;1255;59127;-75
2024/02/19 03:15:45;;;;;;;55.20;38.00;;;;;;;-0.23;100.00;99480.02;109218;1255;67089;-75
2024/02/19 03:18:12;;;;;;;51.40;36.40;;;;;;;-0.19;100.00;99476.64;109236;1255;60638;-75
2024/02/19 03:20:39;;;;;;;48.70;35.70;;;;;;;-0.15;100.00;99473.26;109210;1255;64063;-75
2024/02/19 03:23:06;;;;;;;50.70;35.70;;;;;;;-0.12;100.00;99471.63;109214;1255;59032;-75
2024/02/19 03:25:33;;;;;;;50.90;34.70;;;;;;;-0.08;100.00;99468.96;109019;1256;59148;-76
2024/02/19 03:28:00;;;;;;;51.20;37.30;;;;;;;-0.06;100.00;99462.63;109019;1255;66132;-75
2024/02/19 03:30:29;;;;;;;51.30;36.20;;;;;;;-0.03;100.00;99456.13;108979;1255;69462;-75
2024/02/19 03:32:56;;;;;;;48.00;35.50;;;;;;;0.01;100.00;99458.16;109243;1255;65014;-76
2024/02/19 03:35:23;;;;;;;51.10;36.20;;;;;;;0.05;100.00;99453.19;109231;1255;58921;-75
2024/02/19 03:37:50;;;;;;;49.30;34.80;;;;;;;0.09;100.00;99450.34;109210;1255;58914;-75
2024/02/19 03:40:17;;;;;;;52.20;36.40;;;;;;;0.11;100.00;99445.23;108986;1256;66060;-76
2024/02/19 03:42:44;;;;;;;49.50;34.40;;;;;;;0.12;100.00;99441.71;109089;1256;61441;-77
2024/02/19 03:45:11;;;;;;;50.60;34.50;;;;;;;0.14;100.00;99437.83;109238;1255;64072;-75
2024/02/19 03:47:37;;;;;;;48.50;35.30;;;;;;;0.16;100.00;99433.27;108990;1256;58999;-75
2024/02/19 03:50:04;;;;;;;49.40;35.60;;;;;;;0.18;100.00;99432.17;109223;1256;58885;-77
2024/02/19 03:52:31;;;;;;;57.00;37.60;;;;;;;0.20;100.00;99429.69;109256;1255;67054;-75
2024/02/19 03:54:58;;;;;;;53.40;35.70;;;;;;;0.23;100.00;99428.59;109253;1255;61014;-75
2024/02/19 03:57:24;;;;;;;52.50;35.80;;;;;;;0.25;100.00;99430.31;109291;1255;64017;-75
2024/02/19 03:59:51;;;;;;;56.40;37.70;;;;;;;0.26;100.00;99425.57;109190;1255;59298;-75
2024/02/19 04:02:18;;;;;;;55.70;37.20;;;;;;;0.27;100.00;99419.77;109272;1255;59016;-75
2024/02/19 04:04:45;;;;;;;53.80;36.40;;;;;;;0.29;100.00;99418.18;109292;1256;67003;-75
2024/02/19 04:07:11;;;;;;;48.90;34.10;;;;;;;0.29;100.00;99415.54;109210;1255;61071;-75
2024/02/19 04:09:38;;;;;;;51.50;37.30;;;;;;;0.31;100.00;99410.80;109226;1255;65110;-74
2024/02/19 04:12:06;;;;;;;56.00;39.70;;;;;;;0.32;100.00;99409.90;107704;1255;1002346;-74
2024/02/19 04:14:33;;;;;;;52.70;37.30;;;;;;;0.35;100.00;99407.94;109185;1255;61510;-75
2024/02/19 04:16:59;;;;;;;51.40;35.30;;;;;;;0.36;100.00;99404.77;109225;1255;74671;-73
2024/02/19 04:19:29;;;;;;;48.70;36.60;;;;;;;0.36;100.00;99400.38;109261;1255;61146;-76
2024/02/19 04:21:56;;;;;;;49.00;35.10;;;;;;;0.37;100.00;99394.25;109223;1255;64002;-75
2024/02/19 04:24:22;;;;;;;55.00;36.80;;;;;;;0.37;100.00;99390.40;109177;1255;58989;-75
2024/02/19 04:26:49;;;;;;;53.60;37.70;;;;;;;0.38;100.00;99388.11;109204;1255;58892;-74
2024/02/19 04:29:16;;;;;;;57.10;39.90;;;;;;;0.38;100.00;99383.04;109187;1255;65951;-76
2024/02/19 04:31:43;;;;;;;53.50;36.70;;;;;;;0.39;100.00;99379.36;109224;1255;61185;-75
2024/02/19 04:34:09;;;;;;;52.00;37.30;;;;;;;0.39;100.00;99374.11;109213;1255;65305;-74
2024/02/19 04:36:36;;;;;;;54.80;37.60;;;;;;;0.41;100.00;99373.55;109165;1255;58954;-74
2024/02/19 04:39:03;;;;;;;53.40;38.90;;;;;;;0.43;100.00;99367.92;109189;1255;59040;-74
2024/02/19 04:41:29;;;;;;;58.10;40.40;;;;;;;0.45;100.00;99363.86;109219;1255;67013;-75
2024/02/19 04:43:56;;;;;;;56.60;40.20;;;;;;;0.48;100.00;99361.00;109229;1255;61150;-75
2024/02/19 04:46:23;;;;;;;59.40;40.70;;;;;;;0.51;100.00;99357.79;109172;1255;65051;-75
2024/02/19 04:48:49;;;;;;;55.90;39.50;;;;;;;0.55;100.00;99356.83;109216;1255;59009;-76
2024/02/19 04:51:16;;;;;;;59.60;42.70;;;;;;;0.59;100.00;99350.98;109221;1255;58971;-74
2024/02/19 04:53:42;;;;;;;53.90;37.90;;;;;;;0.60;100.00;99345.70;109230;1255;67082;-74
2024/02/19 04:56:13;;;;;;;59.50;40.80;;;;;;;0.62;100.00;99348.83;109224;1255;60953;-75
2024/02/19 04:58:40;;;;;;;57.00;39.40;;;;;;;0.64;100.00;99343.88;108968;1255;62849;-74
2024/02/19 05:01:07;;;;;;;59.50;40.90;;;;;;;0.66;100.00;99340.52;109183;1256;59074;-75
2024/02/19 05:03:33;;;;;;;58.30;39.60;;;;;;;0.67;100.00;99339.10;109196;1255;58995;-74
2024/02/19 05:06:01;;;;;;;55.10;38.70;;;;;;;0.68;100.00;99332.27;109181;1256;66989;-74
2024/02/19 05:08:27;;;;;;;55.40;39.70;;;;;;;0.69;100.00;99331.73;109236;1255;60143;-78
2024/02/19 05:10:54;;;;;;;57.20;40.80;;;;;;;0.70;100.00;99335.02;109180;1255;64039;-81
2024/02/19 05:13:20;;;;;;;61.40;41.90;;;;;;;0.72;100.00;99330.25;108444;1255;1002223;-84
2024/02/19 05:15:47;;;;;;;63.80;41.10;;;;;;;0.74;100.00;99326.70;108993;1255;59435;-80
2024/02/19 05:18:15;;;;;;;62.10;42.40;;;;;;;0.76;100.00;99328.23;109235;1256;67039;-85
2024/02/19 05:20:41;;;;;;;59.50;40.80;;;;;;;0.78;100.00;99329.25;109184;1255;60748;-84
2024/02/19 05:23:08;;;;;;;62.40;42.60;;;;;;;0.80;100.00;99327.62;109210;1255;63665;-81
2024/02/19 05:25:35;;;;;;;58.00;40.10;;;;;;;0.82;100.00;99323.56;109186;1255;59444;-77
2024/02/19 05:28:02;;;;;;;59.00;40.70;;;;;;;0.84;100.00;99323.16;109222;1255;58874;-77
2024/02/19 05:30:28;;;;;;;55.70;39.90;;;;;;;0.87;100.00;99324.86;109221;1255;66832;-76
2024/02/19 05:32:55;;;;;;;65.20;43.30;;;;;;;0.90;100.00;99320.42;109302;1254;59151;-76
2024/02/19 05:35:22;;;;;;;60.10;41.90;;;;;;;0.92;100.00;99319.49;109282;1255;65055;-77
2024/02/19 05:37:48;;;;;;;59.80;42.30;;;;;;;0.93;100.00;99318.61;109266;1254;59028;-77
2024/02/19 05:40:15;;;;;;;60.50;41.80;;;;;;;0.93;100.00;99314.21;109302;1254;59355;-76
2024/02/19 05:42:41;;;;;;;52.70;39.30;;;;;;;0.94;100.00;99312.27;109273;1254;64808;-77
2024/02/19 05:45:10;;;;;;;55.80;40.60;;;;;;;0.95;100.00;99314.17;109307;1254;61187;-76
2024/02/19 05:47:36;;;;;;;56.30;40.50;;;;;;;0.96;100.00;99316.41;109268;1254;63816;-78
2024/02/19 05:50:03;;;;;;;55.50;41.20;;;;;;;0.98;100.00;99319.86;109281;1254;59487;-76
2024/02/19 05:52:30;;;;;;;60.90;40.90;;;;;;;1.00;100.00;99320.52;109331;1254;59060;-76
2024/02/19 05:54:58;;;;;;;56.60;40.00;;;;;;;1.03;100.00;99318.72;109296;1255;67358;-76
2024/02/19 05:57:25;;;;;;;56.90;39.70;;;;;;;1.05;100.00;99318.85;109313;1255;61062;-77
2024/02/19 05:59:52;;;;;;;59.30;39.90;;;;;;;1.09;100.00;99319.98;109282;1254;62422;-76
2024/02/19 06:02:19;;;;;;;52.90;38.60;;;;;;;1.13;100.00;99315.70;109286;1254;59020;-76
2024/02/19 06:04:45;;;;;;;51.10;37.90;;;;;;;1.16;100.00;99317.04;109099;1254;58979;-76
2024/02/19 06:07:12;;;;;;;53.30;37.30;;;;;;;1.17;100.00;99315.76;109316;1254;66064;-77
2024/02/19 06:09:40;;;;;;;55.10;39.30;;;;;;;1.19;100.00;99311.52;109289;1254;60096;-77
2024/02/19 06:12:08;;;;;;;52.00;37.20;;;;;;;1.22;100.00;99311.96;109287;1254;65080;-77
2024/02/19 06:14:36;;;;;;;50.00;36.80;;;;;;;1.25;100.00;99312.59;109253;1254;59023;-76
2024/02/19 06:17:03;;;;;;;53.60;38.10;;;;;;;1.28;100.00;99307.10;109264;1254;59834;-76
2024/02/19 06:19:29;;;;;;;53.70;37.60;;;;;;;1.31;100.00;99305.97;109068;1254;66210;-77
2024/02/19 06:21:56;;;;;;;53.40;39.00;;;;;;;1.34;100.00;99304.87;109272;1254;61261;-77
2024/02/19 06:24:23;;;;;;;57.60;42.40;;;;;;;1.37;100.00;99307.23;109251;1254;64028;-77
2024/02/19 06:26:49;;;;;;;55.80;41.20;;;;;;;1.40;100.00;99305.42;109275;1254;59015;-76
2024/02/19 06:29:16;;;;;;;51.20;38.10;;;;;;;1.42;100.00;99308.67;109302;1254;59109;-76
2024/02/19 06:31:45;;;;;;;53.00;37.70;;;;;;;1.44;100.00;99309.33;109274;1254;66714;-77
2024/02/19 06:34:12;;;;;;;61.50;40.70;;;;;;;1.46;100.00;99306.84;109278;1254;61004;-77
2024/02/19 06:36:40;;;;;;;52.10;38.60;;;;;;;1.47;100.00;99305.23;109264;1254;65043;-77
2024/02/19 06:39:07;;;;;;;55.10;40.80;;;;;;;1.49;100.00;99305.52;109266;1254;59001;-77
2024/02/19 06:41:33;;;;;;;56.20;40.00;;;;;;;1.53;100.00;99303.16;109028;1254;59089;-77
2024/02/19 06:44:00;;;;;;;60.20;44.00;;;;;;;1.57;100.00;99300.77;109291;1254;66137;-76
2024/02/19 06:46:26;;;;;;;62.20;42.50;;;;;;;1.61;100.00;99301.39;109296;1254;61126;-78
2024/02/19 06:48:53;;;;;;;54.60;42.00;;;;;;;1.63;100.00;99297.30;108984;1254;63524;-77
2024/02/19 06:51:19;;;;;;;65.10;45.20;;;;;;;1.67;100.00;99293.50;109316;1254;59329;-77
2024/02/19 06:53:46;;;;;;;71.50;51.30;;;;;;;1.71;100.00;99294.98;109345;1254;59113;-78
2024/02/19 06:56:13;;;;;;;67.90;49.10;;;;;;;1.78;100.00;99290.79;109343;1254;67126;-78
2024/02/19 06:58:39;;;;;;;64.30;47.00;;;;;;;1.84;100.00;99287.13;109341;1254;61025;-77
2024/02/19 07:01:06;;;;;;;64.30;46.50;;;;;;;1.89;100.00;99284.70;109321;1254;64932;-77
2024/02/19 07:03:33;;;;;;;69.80;47.50;;;;;;;1.98;100.00;99280.24;109303;1254;59335;-77
2024/02/19 07:06:00;;;;;;;64.20;49.60;;;;;;;2.09;100.00;99282.40;109344;1254;59033;-77
2024/02/19 07:08:27;;;;;;;60.60;46.10;;;;;;;2.19;100.00;99284.02;109337;1254;67106;-77
2024/02/19 07:10:54;;;;;;;63.40;49.70;;;;;;;2.31;100.00;99278.27;109313;1254;61053;-77
2024/02/19 07:13:20;;;;;;;74.50;60.40;;;;;;;2.41;100.00;99279.38;109335;1254;65430;-76
2024/02/19 07:15:47;;;;;;;60.20;51.00;;;;;;;2.49;100.00;99273.02;109302;1254;59046;-77
2024/02/19 07:18:13;;;;;;;66.70;54.90;;;;;;;2.57;100.00;99270.67;109356;1254;59218;-77
2024/02/19 07:20:40;;;;;;;65.50;54.50;;;;;;;2.65;100.00;99270.59;109311;1254;67261;-77
2024/02/19 07:23:07;;;;;;;79.70;70.90;;;;;;;2.74;100.00;99267.34;109313;1254;59003;-76
2024/02/19 07:25:34;;;;;;;80.90;65.00;;;;;;;2.84;100.00;99260.21;109316;1254;65062;-77
2024/02/19 07:28:01;;;;;;;76.70;64.40;;;;;;;2.97;100.00;99258.92;109299;1254;59012;-77
2024/02/19 07:30:27;;;;;;;80.50;66.80;;;;;;;3.08;100.00;99257.33;109209;1254;59332;-76
2024/02/19 07:32:54;;;;;;;108.00;90.90;;;;;;;3.14;100.00;99257.48;109314;1254;67070;-77
2024/02/19 07:35:20;;;;;;;68.60;53.50;;;;;;;3.17;100.00;99255.80;109331;1254;61105;-77
2024/02/19 07:37:47;;;;;;;71.50;56.10;;;;;;;3.20;100.00;99254.83;109301;1254;64814;-77
2024/02/19 07:40:14;;;;;;;62.10;48.20;;;;;;;3.22;100.00;99255.11;109288;1255;59029;-78
2024/02/19 07:42:41;;;;;;;60.80;47.00;;;;;;;3.25;100.00;99252.39;109273;1254;59040;-77
2024/02/19 07:45:08;;;;;;;66.10;51.70;;;;;;;3.28;100.00;99253.50;109319;1254;67057;-77
2024/02/19 07:47:34;;;;;;;64.00;52.60;;;;;;;3.32;100.00;99254.25;109318;1254;61065;-76
2024/02/19 07:50:01;;;;;;;68.80;54.10;;;;;;;3.40;100.00;99254.16;109342;1255;65242;-77
2024/02/19 07:52:28;;;;;;;61.70;49.40;;;;;;;3.48;100.00;99249.52;109283;1256;58986;-78
2024/02/19 07:54:54;;;;;;;63.10;47.80;;;;;;;3.53;100.00;99239.16;109301;1254;59204;-77
2024/02/19 07:57:21;;;;;;;61.70;47.80;;;;;;;3.54;100.00;99235.08;109308;1254;66060;-76
2024/02/19 07:59:48;;;;;;;63.50;49.20;;;;;;;3.50;100.00;99236.44;109333;1254;60101;-77
2024/02/19 08:02:15;;;;;;;59.80;47.20;;;;;;;3.48;100.00;99232.98;109295;1254;64001;-77
2024/02/19 08:04:41;;;;;;;61.90;47.40;;;;;;;3.49;100.00;99227.70;109026;1255;59031;-77
2024/02/19 08:07:08;;;;;;;71.10;51.40;;;;;;;3.51;100.00;99226.54;109322;1254;59045;-76
2024/02/19 08:09:34;;;;;;;60.80;47.70;;;;;;;3.54;100.00;99228.38;109315;1254;67130;-77
2024/02/19 08:12:01;;;;;;;62.90;49.30;;;;;;;3.58;100.00;99228.80;109027;1257;58994;-76
2024/02/19 08:14:28;;;;;;;58.70;45.70;;;;;;;3.63;100.00;99229.31;109298;1255;63890;-76
2024/02/19 08:16:54;;;;;;;64.60;49.10;;;;;;;3.72;100.00;99228.49;109264;1255;58977;-77
2024/02/19 08:19:21;;;;;;;66.00;51.40;;;;;;;3.80;100.00;99224.17;109022;1254;59061;-77
2024/02/19 08:21:49;;;;;;;61.60;46.60;;;;;;;3.86;100.00;99222.70;109294;1254;65929;-77
2024/02/19 08:24:15;;;;;;;58.20;44.10;;;;;;;3.95;100.00;99214.13;109237;1254;60139;-78
2024/02/19 08:26:42;;;;;;;62.20;45.90;;;;;;;4.01;100.00;99213.02;109267;1255;64260;-76
2024/02/19 08:29:10;;;;;;;60.70;48.30;;;;;;;4.05;100.00;99216.38;109255;1254;59153;-77
2024/02/19 08:31:36;;;;;;;62.20;47.60;;;;;;;4.09;100.00;99212.39;109253;1256;58860;-77
2024/02/19 08:34:03;;;;;;;55.50;43.90;;;;;;;4.13;100.00;99213.83;109099;1256;67002;-77
2024/02/19 08:36:32;;;;;;;59.80;45.90;;;;;;;4.16;100.00;99214.73;109126;1256;61031;-77
2024/02/19 08:38:59;;;;;;;60.80;48.70;;;;;;;4.20;100.00;99209.66;109099;1256;64155;-77
2024/02/19 08:41:25;;;;;;;64.60;50.10;;;;;;;4.26;100.00;99206.98;109099;1256;59341;-77
2024/02/19 08:43:52;;;;;;;62.00;49.50;;;;;;;4.33;100.00;99206.20;108986;1256;58966;-77
2024/02/19 08:46:19;;;;;;;63.80;49.60;;;;;;;4.40;100.00;99204.53;109119;1256;66993;-77
2024/02/19 08:48:46;;;;;;;62.30;50.60;;;;;;;4.50;100.00;99205.89;109135;1256;61094;-77
2024/02/19 08:51:12;;;;;;;66.80;52.70;;;;;;;4.62;100.00;99206.67;109097;1256;65287;-76
2024/02/19 08:53:39;;;;;;;65.10;52.40;;;;;;;4.75;100.00;99201.38;109125;1256;58938;-77
2024/02/19 08:56:06;;;;;;;63.80;51.80;;;;;;;4.90;100.00;99197.98;108324;1256;1002174;-77
2024/02/19 08:58:33;;;;;;;64.50;51.10;;;;;;;5.07;100.00;99195.35;109121;1256;66141;-76
2024/02/19 09:01:01;;;;;;;63.20;49.90;;;;;;;5.23;100.00;99192.58;109140;1256;61191;-77
2024/02/19 09:03:27;;;;;;;62.10;49.60;;;;;;;5.41;100.00;99193.55;109101;1256;64824;-76
2024/02/19 09:05:55;;;;;;;68.50;52.30;;;;;;;5.59;100.00;99186.28;109111;1256;59334;-77
2024/02/19 09:08:21;;;;;;;63.30;52.90;;;;;;;5.72;100.00;99183.95;108958;1256;59147;-77
2024/02/19 09:10:48;;;;;;;60.60;48.70;;;;;;;5.85;100.00;99183.34;109149;1256;66931;-76
2024/02/19 09:13:16;;;;;;;67.30;50.60;;;;;;;5.97;100.00;99176.88;109134;1256;60008;-76
2024/02/19 09:15:44;;;;;;;72.60;57.30;;;;;;;6.15;100.00;99174.49;109130;1256;63987;-75
2024/02/19 09:18:10;;;;;;;88.90;63.70;;;;;;;6.34;100.00;99170.23;109101;1256;59000;-77
2024/02/19 09:20:37;;;;;;;68.30;52.90;;;;;;;6.55;100.00;99164.29;109144;1256;59034;-76
2024/02/19 09:23:04;;;;;;;64.50;50.70;;;;;;;6.75;100.00;99166.70;109134;1256;67004;-77
2024/02/19 09:25:31;;;;;;;77.20;58.10;;;;;;;6.95;100.00;99160.05;109115;1256;60960;-77
2024/02/19 09:27:58;;;;;;;60.00;46.50;;;;;;;7.14;100.00;99151.48;108995;1256;64049;-77
2024/02/19 09:30:24;;;;;;;51.00;40.00;;;;;;;7.38;100.00;99149.94;109125;1256;59402;-77
2024/02/19 09:32:51;;;;;;;24.70;20.20;;;;;;;7.65;100.00;99144.98;109115;1256;59053;-76
2024/02/19 09:35:18;;;;;;;13.50;12.10;;;;;;;8.01;100.00;99142.20;109147;1256;67347;-76
2024/02/19 09:37:48;;;;;;;10.40;9.20;;;;;;;8.44;100.00;99138.06;109024;1256;60010;-76
2024/02/19 09:40:16;;;;;;;10.40;7.80;;;;;;;8.89;100.00;99138.75;109109;1256;63996;-76
2024/02/19 09:42:47;;;;;;;8.10;6.90;;;;;;;9.28;100.00;99130.27;109105;1258;58993;-77
2024/02/19 09:45:14;;;;;;;8.20;6.80;;;;;;;9.58;100.00;99133.55;109149;1256;58910;-76
2024/02/19 09:47:44;;;;;;;6.90;5.50;;;;;;;9.83;100.00;99129.40;109019;1256;66253;-76
2024/02/19 09:50:13;;;;;;;6.40;5.60;;;;;;;10.01;100.00;99132.92;109105;1260;60054;-76
2024/02/19 09:52:42;;;;;;;5.80;5.30;;;;;;;10.16;100.00;99134.27;109127;1256;64045;-76
2024/02/19 09:55:10;;;;;;;5.50;5.00;;;;;;;10.25;100.00;99125.02;109121;1256;58950;-77
2024/02/19 09:57:36;;;;;;;5.30;4.70;;;;;;;10.29;100.00;99121.06;108972;1256;59240;-76
2024/02/19 10:00:04;;;;;;;6.00;4.80;;;;;;;10.31;100.00;99118.80;109129;1256;67385;-76
2024/02/19 10:02:31;;;;;;;5.20;4.70;;;;;;;10.37;100.00;99114.30;109132;1256;60766;-76
2024/02/19 10:04:59;;;;;;;5.70;5.00;;;;;;;10.47;100.00;99117.27;109103;1256;64121;-76
2024/02/19 10:07:25;;;;;;;5.30;4.20;;;;;;;10.53;100.00;99113.98;109108;1256;58975;-76
2024/02/19 10:09:52;;;;;;;6.70;5.90;;;;;;;10.62;100.00;99106.68;109137;1256;58875;-76
2024/02/19 10:12:19;;;;;;;4.90;4.40;;;;;;;10.75;100.00;99104.79;109144;1256;66983;-76
2024/02/19 10:14:46;;;;;;;6.10;4.90;;;;;;;10.85;100.00;99102.30;109123;1256;60368;-76
2024/02/19 10:17:20;;;;;;;5.10;4.30;;;;;;;11.02;100.00;99102.61;109106;1256;65045;-76
2024/02/19 10:19:47;;;;;;;4.70;4.20;;;;;;;11.34;100.00;99104.70;109012;1261;58988;-75
2024/02/19 10:22:16;;;;;;;4.70;4.30;;;;;;;11.67;100.00;99103.14;109125;1256;59040;-77
2024/02/19 10:24:43;;;;;;;4.50;4.10;;;;;;;11.83;100.00;99105.55;108987;1256;66034;-75
2024/02/19 10:27:10;;;;;;;4.80;4.30;;;;;;;11.80;100.00;99106.64;109113;1256;59023;-76
2024/02/19 10:29:37;;;;;;;4.30;3.90;;;;;;;11.69;100.00;99108.67;108961;1256;65202;-75
2024/02/19 10:32:04;;;;;;;4.60;4.20;;;;;;;11.63;100.00;99110.34;109134;1256;59096;-76
2024/02/19 10:34:30;;;;;;;4.00;3.60;;;;;;;11.56;100.00;99108.73;109103;1256;59037;-77
2024/02/19 10:36:58;;;;;;;4.90;4.50;;;;;;;11.40;100.00;99101.98;109142;1256;67055;-78
2024/02/19 10:39:25;;;;;;;3.90;3.60;;;;;;;11.29;100.00;99101.46;109122;1256;61635;-77
2024/02/19 10:41:51;;;;;;;4.40;4.00;;;;;;;11.19;100.00;99097.19;109093;1256;64195;-78
2024/02/19 10:44:18;;;;;;;5.10;4.60;;;;;;;11.11;100.00;99102.16;109104;1256;58980;-76
2024/02/19 10:46:45;;;;;;;4.70;4.30;;;;;;;11.06;100.00;99101.13;109125;1256;59064;-76
2024/02/19 10:49:17;;;;;;;5.10;4.60;;;;;;;11.09;100.00;99100.75;109116;1256;66106;-77
2024/02/19 10:51:44;;;;;;;5.50;5.00;;;;;;;11.14;100.00;99099.11;109119;1256;60825;-78
2024/02/19 10:54:17;;;;;;;7.80;6.20;;;;;;;11.17;100.00;99103.02;109126;1256;64167;-76
2024/02/19 10:56:44;;;;;;;7.80;5.60;;;;;;;11.10;100.00;99102.58;109133;1256;58994;-76
2024/02/19 10:59:11;;;;;;;8.40;6.20;;;;;;;11.09;100.00;99096.45;109116;1256;59225;-75
2024/02/19 11:01:40;;;;;;;5.60;5.10;;;;;;;11.16;100.00;99094.54;109113;1256;67007;-76
2024/02/19 11:04:11;;;;;;;7.30;5.70;;;;;;;11.14;100.00;99092.73;108953;1256;61051;-76
2024/02/19 11:06:59;;;;;;;6.30;5.40;;;;;;;11.07;100.00;99090.52;109113;1256;64012;-76